sensor_id;sensor_type;location;lat;lon;timestamp;P1;durP1;ratioP1;P2;durP2;ratioP2
21505;SDS011;10914;48.886;9.394;2024-03-17T00:00:13;34.30;;;31.60;;
21505;SDS011;10914;48.886;9.394;2024-03-17T00:02:40;34.78;;;32.28;;
21505;SDS011;10914;48.886;9.394;2024-03-17T00:05:06;34.25;;;31.75;;
21505;SDS011;10914;48.886;9.394;2024-03-17T00:07:31;37.25;;;34.20;;
21505;SDS011;10914;48.886;9.394;2024-03-17T00:09:56;34.42;;;31.70;;
21505;SDS011;10914;48.886;9.394;2024-03-17T00:12:21;34.85;;;32.17;;
21505;SDS011;10914;48.886;9.394;2024-03-17T00:14:46;35.03;;;32.23;;
21505;SDS011;10914;48.886;9.394;2024-03-17T00:17:11;32.77;;;30.27;;
21505;SDS011;10914;48.886;9.394;2024-03-17T00:19:37;35.10;;;32.50;;
21505;SDS011;10914;48.886;9.394;2024-03-17T00:22:02;34.70;;;32.00;;
21505;SDS011;10914;48.886;9.394;2024-03-17T00:24:28;36.00;;;32.90;;
21505;SDS011;10914;48.886;9.394;2024-03-17T00:26:59;34.22;;;31.60;;
21505;SDS011;10914;48.886;9.394;2024-03-17T00:29:24;36.03;;;33.07;;
21505;SDS011;10914;48.886;9.394;2024-03-17T00:31:50;34.65;;;32.05;;
21505;SDS011;10914;48.886;9.394;2024-03-17T00:34:15;34.40;;;31.80;;
21505;SDS011;10914;48.886;9.394;2024-03-17T00:36:40;33.80;;;30.98;;
21505;SDS011;10914;48.886;9.394;2024-03-17T00:39:05;34.40;;;31.83;;
21505;SDS011;10914;48.886;9.394;2024-03-17T00:41:30;38.22;;;35.28;;
21505;SDS011;10914;48.886;9.394;2024-03-17T00:43:56;39.03;;;35.85;;
21505;SDS011;10914;48.886;9.394;2024-03-17T00:46:21;42.00;;;38.80;;
21505;SDS011;10914;48.886;9.394;2024-03-17T00:48:50;37.58;;;34.65;;
21505;SDS011;10914;48.886;9.394;2024-03-17T00:51:15;39.00;;;36.08;;
21505;SDS011;10914;48.886;9.394;2024-03-17T00:53:41;38.10;;;35.40;;
21505;SDS011;10914;48.886;9.394;2024-03-17T00:56:06;36.33;;;33.60;;
21505;SDS011;10914;48.886;9.394;2024-03-17T00:58:31;38.67;;;35.78;;
21505;SDS011;10914;48.886;9.394;2024-03-17T01:00:56;38.15;;;35.38;;
21505;SDS011;10914;48.886;9.394;2024-03-17T01:03:22;38.85;;;36.08;;
21505;SDS011;10914;48.886;9.394;2024-03-17T01:05:47;42.28;;;39.17;;
21505;SDS011;10914;48.886;9.394;2024-03-17T01:08:13;40.05;;;37.25;;
21505;SDS011;10914;48.886;9.394;2024-03-17T01:10:39;37.63;;;34.75;;
21505;SDS011;10914;48.886;9.394;2024-03-17T01:13:08;38.05;;;35.25;;
21505;SDS011;10914;48.886;9.394;2024-03-17T01:15:34;38.20;;;35.20;;
21505;SDS011;10914;48.886;9.394;2024-03-17T01:17:59;36.17;;;33.53;;
21505;SDS011;10914;48.886;9.394;2024-03-17T01:20:25;38.00;;;35.20;;
21505;SDS011;10914;48.886;9.394;2024-03-17T01:22:51;39.38;;;36.10;;
21505;SDS011;10914;48.886;9.394;2024-03-17T01:25:16;38.20;;;34.63;;
21505;SDS011;10914;48.886;9.394;2024-03-17T01:27:41;38.00;;;34.80;;
21505;SDS011;10914;48.886;9.394;2024-03-17T01:30:08;37.40;;;34.42;;
21505;SDS011;10914;48.886;9.394;2024-03-17T01:32:34;42.85;;;38.95;;
21505;SDS011;10914;48.886;9.394;2024-03-17T01:34:59;36.75;;;33.72;;
21505;SDS011;10914;48.886;9.394;2024-03-17T01:37:24;35.60;;;32.90;;
21505;SDS011;10914;48.886;9.394;2024-03-17T01:39:49;35.23;;;32.53;;
21505;SDS011;10914;48.886;9.394;2024-03-17T01:42:14;36.03;;;33.20;;
21505;SDS011;10914;48.886;9.394;2024-03-17T01:44:40;37.30;;;34.40;;
21505;SDS011;10914;48.886;9.394;2024-03-17T01:47:05;37.83;;;34.33;;
21505;SDS011;10914;48.886;9.394;2024-03-17T01:49:30;38.45;;;35.45;;
21505;SDS011;10914;48.886;9.394;2024-03-17T01:51:56;37.72;;;34.67;;
21505;SDS011;10914;48.886;9.394;2024-03-17T01:54:21;40.72;;;36.55;;
21505;SDS011;10914;48.886;9.394;2024-03-17T01:56:47;43.20;;;39.90;;
21505;SDS011;10914;48.886;9.394;2024-03-17T01:59:12;41.22;;;37.83;;
21505;SDS011;10914;48.886;9.394;2024-03-17T02:01:39;46.47;;;43.08;;
21505;SDS011;10914;48.886;9.394;2024-03-17T02:04:04;35.80;;;33.40;;
21505;SDS011;10914;48.886;9.394;2024-03-17T02:06:30;35.08;;;32.58;;
21505;SDS011;10914;48.886;9.394;2024-03-17T02:08:55;35.97;;;33.28;;
21505;SDS011;10914;48.886;9.394;2024-03-17T02:11:23;37.03;;;34.15;;
21505;SDS011;10914;48.886;9.394;2024-03-17T02:13:48;36.72;;;33.65;;
21505;SDS011;10914;48.886;9.394;2024-03-17T02:16:14;38.20;;;35.20;;
21505;SDS011;10914;48.886;9.394;2024-03-17T02:18:39;37.57;;;34.37;;
21505;SDS011;10914;48.886;9.394;2024-03-17T02:21:04;36.88;;;33.67;;
21505;SDS011;10914;48.886;9.394;2024-03-17T02:23:30;38.90;;;35.28;;
21505;SDS011;10914;48.886;9.394;2024-03-17T02:25:58;37.38;;;33.97;;
21505;SDS011;10914;48.886;9.394;2024-03-17T02:28:23;35.28;;;32.53;;
21505;SDS011;10914;48.886;9.394;2024-03-17T02:30:48;35.83;;;32.53;;
21505;SDS011;10914;48.886;9.394;2024-03-17T02:33:13;33.47;;;30.87;;
21505;SDS011;10914;48.886;9.394;2024-03-17T02:35:38;35.00;;;32.40;;
21505;SDS011;10914;48.886;9.394;2024-03-17T02:38:04;34.28;;;31.83;;
21505;SDS011;10914;48.886;9.394;2024-03-17T02:40:29;33.60;;;31.13;;
21505;SDS011;10914;48.886;9.394;2024-03-17T02:42:54;33.40;;;31.00;;
21505;SDS011;10914;48.886;9.394;2024-03-17T02:45:20;34.38;;;31.88;;
21505;SDS011;10914;48.886;9.394;2024-03-17T02:47:46;31.17;;;29.08;;
21505;SDS011;10914;48.886;9.394;2024-03-17T02:50:11;31.33;;;29.08;;
21505;SDS011;10914;48.886;9.394;2024-03-17T02:52:36;31.65;;;29.35;;
21505;SDS011;10914;48.886;9.394;2024-03-17T02:55:01;32.60;;;30.20;;
21505;SDS011;10914;48.886;9.394;2024-03-17T02:57:26;31.80;;;29.70;;
21505;SDS011;10914;48.886;9.394;2024-03-17T02:59:56;32.67;;;30.17;;
21505;SDS011;10914;48.886;9.394;2024-03-17T03:02:21;33.38;;;30.98;;
21505;SDS011;10914;48.886;9.394;2024-03-17T03:04:46;33.67;;;31.25;;
21505;SDS011;10914;48.886;9.394;2024-03-17T03:07:12;35.45;;;32.75;;
21505;SDS011;10914;48.886;9.394;2024-03-17T03:09:37;33.83;;;31.40;;
21505;SDS011;10914;48.886;9.394;2024-03-17T03:12:02;34.22;;;31.83;;
21505;SDS011;10914;48.886;9.394;2024-03-17T03:14:28;34.35;;;32.03;;
21505;SDS011;10914;48.886;9.394;2024-03-17T03:16:53;35.30;;;32.83;;
21505;SDS011;10914;48.886;9.394;2024-03-17T03:19:18;39.83;;;36.83;;
21505;SDS011;10914;48.886;9.394;2024-03-17T03:21:44;35.50;;;32.92;;
21505;SDS011;10914;48.886;9.394;2024-03-17T03:24:09;36.00;;;33.43;;
21505;SDS011;10914;48.886;9.394;2024-03-17T03:26:34;34.20;;;31.70;;
21505;SDS011;10914;48.886;9.394;2024-03-17T03:28:59;36.35;;;33.47;;
21505;SDS011;10914;48.886;9.394;2024-03-17T03:31:24;35.13;;;32.47;;
21505;SDS011;10914;48.886;9.394;2024-03-17T03:33:50;35.65;;;32.33;;
21505;SDS011;10914;48.886;9.394;2024-03-17T03:36:15;40.80;;;38.20;;
21505;SDS011;10914;48.886;9.394;2024-03-17T03:38:41;41.95;;;39.35;;
21505;SDS011;10914;48.886;9.394;2024-03-17T03:41:07;36.10;;;33.65;;
21505;SDS011;10914;48.886;9.394;2024-03-17T03:43:32;34.03;;;31.52;;
21505;SDS011;10914;48.886;9.394;2024-03-17T03:45:59;33.97;;;31.67;;
21505;SDS011;10914;48.886;9.394;2024-03-17T03:48:24;36.10;;;33.90;;
21505;SDS011;10914;48.886;9.394;2024-03-17T03:50:49;39.23;;;36.50;;
21505;SDS011;10914;48.886;9.394;2024-03-17T03:53:15;35.67;;;33.38;;
21505;SDS011;10914;48.886;9.394;2024-03-17T03:55:40;33.42;;;31.08;;
21505;SDS011;10914;48.886;9.394;2024-03-17T03:58:05;31.90;;;29.80;;
21505;SDS011;10914;48.886;9.394;2024-03-17T04:00:30;32.17;;;29.88;;
21505;SDS011;10914;48.886;9.394;2024-03-17T04:02:57;31.40;;;29.40;;
21505;SDS011;10914;48.886;9.394;2024-03-17T04:05:23;32.65;;;30.52;;
21505;SDS011;10914;48.886;9.394;2024-03-17T04:07:49;31.20;;;29.13;;
21505;SDS011;10914;48.886;9.394;2024-03-17T04:10:14;31.08;;;28.98;;
21505;SDS011;10914;48.886;9.394;2024-03-17T04:12:40;34.90;;;32.63;;
21505;SDS011;10914;48.886;9.394;2024-03-17T04:15:05;32.28;;;30.08;;
21505;SDS011;10914;48.886;9.394;2024-03-17T04:17:31;30.20;;;28.30;;
21505;SDS011;10914;48.886;9.394;2024-03-17T04:19:56;29.85;;;27.95;;
21505;SDS011;10914;48.886;9.394;2024-03-17T04:22:22;30.67;;;28.67;;
21505;SDS011;10914;48.886;9.394;2024-03-17T04:24:47;31.95;;;29.85;;
21505;SDS011;10914;48.886;9.394;2024-03-17T04:27:13;35.40;;;33.20;;
21505;SDS011;10914;48.886;9.394;2024-03-17T04:29:39;38.42;;;36.05;;
21505;SDS011;10914;48.886;9.394;2024-03-17T04:32:04;34.53;;;32.42;;
21505;SDS011;10914;48.886;9.394;2024-03-17T04:34:30;32.40;;;30.27;;
21505;SDS011;10914;48.886;9.394;2024-03-17T04:36:56;32.05;;;29.95;;
21505;SDS011;10914;48.886;9.394;2024-03-17T04:39:21;42.30;;;39.70;;
21505;SDS011;10914;48.886;9.394;2024-03-17T04:41:47;31.87;;;29.77;;
21505;SDS011;10914;48.886;9.394;2024-03-17T04:44:13;31.17;;;28.98;;
21505;SDS011;10914;48.886;9.394;2024-03-17T04:46:38;31.70;;;29.58;;
21505;SDS011;10914;48.886;9.394;2024-03-17T04:49:03;37.78;;;35.40;;
21505;SDS011;10914;48.886;9.394;2024-03-17T04:51:28;31.90;;;29.83;;
21505;SDS011;10914;48.886;9.394;2024-03-17T04:53:53;40.05;;;37.40;;
21505;SDS011;10914;48.886;9.394;2024-03-17T04:56:19;51.10;;;47.83;;
21505;SDS011;10914;48.886;9.394;2024-03-17T04:58:44;51.20;;;47.83;;
21505;SDS011;10914;48.886;9.394;2024-03-17T05:01:09;37.80;;;35.37;;
21505;SDS011;10914;48.886;9.394;2024-03-17T05:03:34;34.50;;;32.17;;
21505;SDS011;10914;48.886;9.394;2024-03-17T05:06:03;32.53;;;30.15;;
21505;SDS011;10914;48.886;9.394;2024-03-17T05:08:29;31.67;;;29.38;;
21505;SDS011;10914;48.886;9.394;2024-03-17T05:13:22;34.45;;;32.20;;
21505;SDS011;10914;48.886;9.394;2024-03-17T05:15:47;36.73;;;34.17;;
21505;SDS011;10914;48.886;9.394;2024-03-17T05:18:13;32.50;;;30.27;;
21505;SDS011;10914;48.886;9.394;2024-03-17T05:20:38;32.07;;;29.80;;
21505;SDS011;10914;48.886;9.394;2024-03-17T05:23:03;32.65;;;30.35;;
21505;SDS011;10914;48.886;9.394;2024-03-17T05:25:29;32.92;;;30.63;;
21505;SDS011;10914;48.886;9.394;2024-03-17T05:27:54;33.30;;;31.20;;
21505;SDS011;10914;48.886;9.394;2024-03-17T05:30:20;38.92;;;36.65;;
21505;SDS011;10914;48.886;9.394;2024-03-17T05:32:45;34.95;;;32.80;;
21505;SDS011;10914;48.886;9.394;2024-03-17T05:35:10;31.95;;;29.85;;
21505;SDS011;10914;48.886;9.394;2024-03-17T05:37:36;32.00;;;29.90;;
21505;SDS011;10914;48.886;9.394;2024-03-17T05:40:01;32.58;;;30.45;;
21505;SDS011;10914;48.886;9.394;2024-03-17T05:42:26;34.20;;;31.80;;
21505;SDS011;10914;48.886;9.394;2024-03-17T05:44:53;30.85;;;28.88;;
21505;SDS011;10914;48.886;9.394;2024-03-17T05:47:18;31.07;;;29.10;;
21505;SDS011;10914;48.886;9.394;2024-03-17T05:49:43;30.90;;;28.80;;
21505;SDS011;10914;48.886;9.394;2024-03-17T05:52:09;30.88;;;28.88;;
21505;SDS011;10914;48.886;9.394;2024-03-17T05:54:35;34.13;;;32.03;;
21505;SDS011;10914;48.886;9.394;2024-03-17T05:57:00;32.25;;;30.15;;
21505;SDS011;10914;48.886;9.394;2024-03-17T05:59:26;33.35;;;31.25;;
21505;SDS011;10914;48.886;9.394;2024-03-17T06:01:51;34.03;;;31.77;;
21505;SDS011;10914;48.886;9.394;2024-03-17T06:04:17;33.03;;;30.73;;
21505;SDS011;10914;48.886;9.394;2024-03-17T06:06:42;32.80;;;30.50;;
21505;SDS011;10914;48.886;9.394;2024-03-17T06:09:07;31.10;;;29.10;;
21505;SDS011;10914;48.886;9.394;2024-03-17T06:11:34;32.58;;;30.58;;
21505;SDS011;10914;48.886;9.394;2024-03-17T06:13:59;33.05;;;30.95;;
21505;SDS011;10914;48.886;9.394;2024-03-17T06:16:29;33.00;;;30.90;;
21505;SDS011;10914;48.886;9.394;2024-03-17T06:18:55;34.95;;;32.67;;
21505;SDS011;10914;48.886;9.394;2024-03-17T06:21:20;34.93;;;32.73;;
21505;SDS011;10914;48.886;9.394;2024-03-17T06:23:46;33.97;;;31.87;;
21505;SDS011;10914;48.886;9.394;2024-03-17T06:26:12;30.33;;;28.45;;
21505;SDS011;10914;48.886;9.394;2024-03-17T06:28:37;30.48;;;28.58;;
21505;SDS011;10914;48.886;9.394;2024-03-17T06:31:02;29.85;;;27.85;;
21505;SDS011;10914;48.886;9.394;2024-03-17T06:33:28;28.58;;;26.88;;
21505;SDS011;10914;48.886;9.394;2024-03-17T06:35:54;29.40;;;27.60;;
21505;SDS011;10914;48.886;9.394;2024-03-17T06:38:20;29.83;;;27.92;;
21505;SDS011;10914;48.886;9.394;2024-03-17T06:40:49;31.38;;;29.48;;
21505;SDS011;10914;48.886;9.394;2024-03-17T06:43:15;31.23;;;29.23;;
21505;SDS011;10914;48.886;9.394;2024-03-17T06:45:40;31.27;;;29.27;;
21505;SDS011;10914;48.886;9.394;2024-03-17T06:48:05;32.03;;;29.80;;
21505;SDS011;10914;48.886;9.394;2024-03-17T06:50:31;31.20;;;29.10;;
21505;SDS011;10914;48.886;9.394;2024-03-17T06:52:57;32.83;;;30.73;;
21505;SDS011;10914;48.886;9.394;2024-03-17T06:55:22;33.83;;;31.43;;
21505;SDS011;10914;48.886;9.394;2024-03-17T06:57:47;31.17;;;29.10;;
21505;SDS011;10914;48.886;9.394;2024-03-17T07:00:13;32.27;;;30.07;;
21505;SDS011;10914;48.886;9.394;2024-03-17T07:02:42;31.48;;;29.40;;
21505;SDS011;10914;48.886;9.394;2024-03-17T07:05:10;31.92;;;29.73;;
21505;SDS011;10914;48.886;9.394;2024-03-17T07:07:37;31.80;;;29.65;;
21505;SDS011;10914;48.886;9.394;2024-03-17T07:10:02;32.37;;;30.17;;
21505;SDS011;10914;48.886;9.394;2024-03-17T07:12:30;31.25;;;29.15;;
21505;SDS011;10914;48.886;9.394;2024-03-17T07:14:55;32.70;;;30.40;;
21505;SDS011;10914;48.886;9.394;2024-03-17T07:17:20;32.58;;;30.27;;
21505;SDS011;10914;48.886;9.394;2024-03-17T07:19:45;37.53;;;34.63;;
21505;SDS011;10914;48.886;9.394;2024-03-17T07:22:10;34.22;;;31.83;;
21505;SDS011;10914;48.886;9.394;2024-03-17T07:24:36;47.27;;;44.20;;
21505;SDS011;10914;48.886;9.394;2024-03-17T07:27:01;32.50;;;30.17;;
21505;SDS011;10914;48.886;9.394;2024-03-17T07:29:26;34.20;;;31.80;;
21505;SDS011;10914;48.886;9.394;2024-03-17T07:31:51;34.67;;;32.05;;
21505;SDS011;10914;48.886;9.394;2024-03-17T07:34:16;34.20;;;31.77;;
21505;SDS011;10914;48.886;9.394;2024-03-17T07:36:42;36.35;;;33.85;;
21505;SDS011;10914;48.886;9.394;2024-03-17T07:39:07;37.43;;;34.90;;
21505;SDS011;10914;48.886;9.394;2024-03-17T07:41:32;39.50;;;36.80;;
21505;SDS011;10914;48.886;9.394;2024-03-17T07:43:58;32.45;;;30.23;;
21505;SDS011;10914;48.886;9.394;2024-03-17T07:46:23;32.83;;;30.50;;
21505;SDS011;10914;48.886;9.394;2024-03-17T07:48:48;31.60;;;29.30;;
21505;SDS011;10914;48.886;9.394;2024-03-17T07:51:14;34.38;;;31.98;;
21505;SDS011;10914;48.886;9.394;2024-03-17T07:53:43;32.65;;;30.40;;
21505;SDS011;10914;48.886;9.394;2024-03-17T07:56:10;32.65;;;30.20;;
21505;SDS011;10914;48.886;9.394;2024-03-17T07:58:36;32.40;;;30.20;;
21505;SDS011;10914;48.886;9.394;2024-03-17T08:01:03;31.33;;;29.02;;
21505;SDS011;10914;48.886;9.394;2024-03-17T08:03:29;30.70;;;28.65;;
21505;SDS011;10914;48.886;9.394;2024-03-17T08:05:54;31.27;;;29.08;;
21505;SDS011;10914;48.886;9.394;2024-03-17T08:08:19;30.77;;;28.50;;
21505;SDS011;10914;48.886;9.394;2024-03-17T08:10:45;30.27;;;28.08;;
21505;SDS011;10914;48.886;9.394;2024-03-17T08:13:13;30.58;;;28.48;;
21505;SDS011;10914;48.886;9.394;2024-03-17T08:15:40;32.30;;;30.23;;
21505;SDS011;10914;48.886;9.394;2024-03-17T08:18:06;33.83;;;31.63;;
21505;SDS011;10914;48.886;9.394;2024-03-17T08:20:35;34.08;;;31.67;;
21505;SDS011;10914;48.886;9.394;2024-03-17T08:23:01;33.13;;;31.08;;
21505;SDS011;10914;48.886;9.394;2024-03-17T08:25:26;33.35;;;31.05;;
21505;SDS011;10914;48.886;9.394;2024-03-17T08:27:51;32.80;;;30.70;;
21505;SDS011;10914;48.886;9.394;2024-03-17T08:30:17;33.45;;;31.00;;
21505;SDS011;10914;48.886;9.394;2024-03-17T08:32:42;31.35;;;29.38;;
21505;SDS011;10914;48.886;9.394;2024-03-17T08:35:07;31.07;;;28.80;;
21505;SDS011;10914;48.886;9.394;2024-03-17T08:37:35;30.23;;;28.23;;
21505;SDS011;10914;48.886;9.394;2024-03-17T08:40:00;29.50;;;27.58;;
21505;SDS011;10914;48.886;9.394;2024-03-17T08:42:25;29.10;;;27.17;;
21505;SDS011;10914;48.886;9.394;2024-03-17T08:44:51;28.63;;;26.80;;
21505;SDS011;10914;48.886;9.394;2024-03-17T08:47:16;28.47;;;26.67;;
21505;SDS011;10914;48.886;9.394;2024-03-17T08:49:41;27.98;;;26.17;;
21505;SDS011;10914;48.886;9.394;2024-03-17T08:52:06;28.73;;;26.73;;
21505;SDS011;10914;48.886;9.394;2024-03-17T08:54:32;28.48;;;26.67;;
21505;SDS011;10914;48.886;9.394;2024-03-17T08:56:57;28.80;;;26.88;;
21505;SDS011;10914;48.886;9.394;2024-03-17T08:59:22;28.60;;;26.80;;
21505;SDS011;10914;48.886;9.394;2024-03-17T09:01:47;28.30;;;26.50;;
21505;SDS011;10914;48.886;9.394;2024-03-17T09:04:12;28.23;;;26.43;;
21505;SDS011;10914;48.886;9.394;2024-03-17T09:06:38;29.38;;;27.33;;
21505;SDS011;10914;48.886;9.394;2024-03-17T09:09:03;30.80;;;28.95;;
21505;SDS011;10914;48.886;9.394;2024-03-17T09:11:28;29.83;;;28.03;;
21505;SDS011;10914;48.886;9.394;2024-03-17T09:13:54;30.67;;;28.77;;
21505;SDS011;10914;48.886;9.394;2024-03-17T09:16:19;29.90;;;27.83;;
21505;SDS011;10914;48.886;9.394;2024-03-17T09:18:47;27.60;;;25.90;;
21505;SDS011;10914;48.886;9.394;2024-03-17T09:21:13;27.20;;;25.60;;
21505;SDS011;10914;48.886;9.394;2024-03-17T09:23:42;25.85;;;24.15;;
21505;SDS011;10914;48.886;9.394;2024-03-17T09:26:08;26.10;;;24.58;;
21505;SDS011;10914;48.886;9.394;2024-03-17T09:28:33;26.80;;;25.10;;
21505;SDS011;10914;48.886;9.394;2024-03-17T09:30:58;26.55;;;24.75;;
21505;SDS011;10914;48.886;9.394;2024-03-17T09:33:25;27.92;;;26.15;;
21505;SDS011;10914;48.886;9.394;2024-03-17T09:35:56;27.20;;;25.52;;
21505;SDS011;10914;48.886;9.394;2024-03-17T09:38:22;26.42;;;24.83;;
21505;SDS011;10914;48.886;9.394;2024-03-17T09:40:47;24.92;;;23.33;;
21505;SDS011;10914;48.886;9.394;2024-03-17T09:43:16;26.10;;;24.50;;
21505;SDS011;10914;48.886;9.394;2024-03-17T09:45:41;25.50;;;24.08;;
21505;SDS011;10914;48.886;9.394;2024-03-17T09:48:06;25.63;;;23.90;;
21505;SDS011;10914;48.886;9.394;2024-03-17T09:50:32;26.40;;;24.73;;
21505;SDS011;10914;48.886;9.394;2024-03-17T09:52:59;28.00;;;26.10;;
21505;SDS011;10914;48.886;9.394;2024-03-17T09:55:24;27.45;;;25.83;;
21505;SDS011;10914;48.886;9.394;2024-03-17T09:57:49;26.47;;;24.80;;
21505;SDS011;10914;48.886;9.394;2024-03-17T10:00:15;25.27;;;23.83;;
21505;SDS011;10914;48.886;9.394;2024-03-17T10:02:47;28.15;;;26.25;;
21505;SDS011;10914;48.886;9.394;2024-03-17T10:05:25;27.85;;;25.95;;
21505;SDS011;10914;48.886;9.394;2024-03-17T10:07:50;27.40;;;25.70;;
21505;SDS011;10914;48.886;9.394;2024-03-17T10:10:16;27.17;;;25.42;;
21505;SDS011;10914;48.886;9.394;2024-03-17T10:12:41;26.15;;;24.65;;
21505;SDS011;10914;48.886;9.394;2024-03-17T10:15:08;26.10;;;24.50;;
21505;SDS011;10914;48.886;9.394;2024-03-17T10:17:35;26.85;;;25.25;;
21505;SDS011;10914;48.886;9.394;2024-03-17T10:20:17;28.17;;;26.38;;
21505;SDS011;10914;48.886;9.394;2024-03-17T10:25:30;29.52;;;27.73;;
21505;SDS011;10914;48.886;9.394;2024-03-17T10:27:56;27.45;;;25.88;;
21505;SDS011;10914;48.886;9.394;2024-03-17T10:30:21;27.75;;;26.15;;
21505;SDS011;10914;48.886;9.394;2024-03-17T10:32:53;28.08;;;26.50;;
21505;SDS011;10914;48.886;9.394;2024-03-17T10:35:32;27.65;;;26.02;;
21505;SDS011;10914;48.886;9.394;2024-03-17T10:38:02;27.50;;;25.75;;
21505;SDS011;10914;48.886;9.394;2024-03-17T10:40:28;26.45;;;24.92;;
21505;SDS011;10914;48.886;9.394;2024-03-17T10:42:54;26.45;;;24.77;;
21505;SDS011;10914;48.886;9.394;2024-03-17T10:45:20;26.83;;;25.20;;
21505;SDS011;10914;48.886;9.394;2024-03-17T10:47:47;26.20;;;24.70;;
21505;SDS011;10914;48.886;9.394;2024-03-17T10:50:16;26.48;;;24.88;;
21505;SDS011;10914;48.886;9.394;2024-03-17T10:52:43;25.50;;;24.10;;
21505;SDS011;10914;48.886;9.394;2024-03-17T10:55:10;25.52;;;23.92;;
21505;SDS011;10914;48.886;9.394;2024-03-17T10:57:43;27.08;;;25.48;;
21505;SDS011;10914;48.886;9.394;2024-03-17T11:00:10;26.27;;;24.67;;
21505;SDS011;10914;48.886;9.394;2024-03-17T11:02:37;26.25;;;24.67;;
21505;SDS011;10914;48.886;9.394;2024-03-17T11:05:10;26.08;;;24.48;;
21505;SDS011;10914;48.886;9.394;2024-03-17T11:07:38;26.08;;;24.63;;
21505;SDS011;10914;48.886;9.394;2024-03-17T11:10:08;26.98;;;25.25;;
21505;SDS011;10914;48.886;9.394;2024-03-17T11:12:41;26.15;;;24.65;;
21505;SDS011;10914;48.886;9.394;2024-03-17T11:17:48;25.30;;;23.65;;
21505;SDS011;10914;48.886;9.394;2024-03-17T11:20:26;25.67;;;23.92;;
21505;SDS011;10914;48.886;9.394;2024-03-17T11:22:53;24.05;;;22.65;;
21505;SDS011;10914;48.886;9.394;2024-03-17T11:28:02;27.30;;;25.48;;
21505;SDS011;10914;48.886;9.394;2024-03-17T11:35:49;23.73;;;22.23;;
21505;SDS011;10914;48.886;9.394;2024-03-17T11:38:50;23.93;;;22.47;;
21505;SDS011;10914;48.886;9.394;2024-03-17T11:41:45;23.67;;;22.27;;
21505;SDS011;10914;48.886;9.394;2024-03-17T11:43:45;23.75;;;22.35;;
21505;SDS011;10914;48.886;9.394;2024-03-17T11:46:10;25.20;;;23.57;;
21505;SDS011;10914;48.886;9.394;2024-03-17T11:48:35;25.15;;;23.65;;
21505;SDS011;10914;48.886;9.394;2024-03-17T11:51:01;24.98;;;23.58;;
21505;SDS011;10914;48.886;9.394;2024-03-17T11:53:27;25.60;;;23.75;;
21505;SDS011;10914;48.886;9.394;2024-03-17T11:55:53;25.52;;;23.80;;
21505;SDS011;10914;48.886;9.394;2024-03-17T11:58:18;23.97;;;22.37;;
21505;SDS011;10914;48.886;9.394;2024-03-17T12:00:44;24.35;;;22.77;;
21505;SDS011;10914;48.886;9.394;2024-03-17T12:03:16;23.77;;;22.38;;
21505;SDS011;10914;48.886;9.394;2024-03-17T12:05:41;24.25;;;22.67;;
21505;SDS011;10914;48.886;9.394;2024-03-17T12:08:17;23.73;;;22.40;;
21505;SDS011;10914;48.886;9.394;2024-03-17T12:10:51;23.80;;;22.30;;
21505;SDS011;10914;48.886;9.394;2024-03-17T12:13:16;23.52;;;22.00;;
21505;SDS011;10914;48.886;9.394;2024-03-17T12:15:42;23.40;;;22.10;;
21505;SDS011;10914;48.886;9.394;2024-03-17T12:18:28;23.37;;;22.07;;
21505;SDS011;10914;48.886;9.394;2024-03-17T12:20:56;21.17;;;19.92;;
21505;SDS011;10914;48.886;9.394;2024-03-17T12:23:23;20.67;;;19.48;;
21505;SDS011;10914;48.886;9.394;2024-03-17T12:25:48;21.27;;;20.17;;
21505;SDS011;10914;48.886;9.394;2024-03-17T12:28:15;20.80;;;19.60;;
21505;SDS011;10914;48.886;9.394;2024-03-17T12:30:40;20.95;;;19.75;;
21505;SDS011;10914;48.886;9.394;2024-03-17T12:33:06;21.05;;;19.85;;
21505;SDS011;10914;48.886;9.394;2024-03-17T12:35:34;21.20;;;20.00;;
21505;SDS011;10914;48.886;9.394;2024-03-17T12:37:59;21.88;;;20.58;;
21505;SDS011;10914;48.886;9.394;2024-03-17T12:40:24;21.70;;;20.50;;
21505;SDS011;10914;48.886;9.394;2024-03-17T12:42:54;23.50;;;22.20;;
21505;SDS011;10914;48.886;9.394;2024-03-17T12:45:22;22.98;;;21.67;;
21505;SDS011;10914;48.886;9.394;2024-03-17T12:47:48;22.52;;;21.30;;
21505;SDS011;10914;48.886;9.394;2024-03-17T12:50:14;22.88;;;21.67;;
21505;SDS011;10914;48.886;9.394;2024-03-17T12:52:51;23.80;;;22.40;;
21505;SDS011;10914;48.886;9.394;2024-03-17T12:55:19;22.73;;;21.33;;
21505;SDS011;10914;48.886;9.394;2024-03-17T13:00:57;22.90;;;21.50;;
21505;SDS011;10914;48.886;9.394;2024-03-17T13:03:41;24.20;;;22.80;;
21505;SDS011;10914;48.886;9.394;2024-03-17T13:06:09;22.90;;;21.60;;
21505;SDS011;10914;48.886;9.394;2024-03-17T13:08:35;22.92;;;21.58;;
21505;SDS011;10914;48.886;9.394;2024-03-17T13:11:00;23.83;;;22.42;;
21505;SDS011;10914;48.886;9.394;2024-03-17T13:13:25;23.75;;;22.25;;
21505;SDS011;10914;48.886;9.394;2024-03-17T13:15:51;24.33;;;22.67;;
21505;SDS011;10914;48.886;9.394;2024-03-17T13:18:17;23.15;;;21.85;;
21505;SDS011;10914;48.886;9.394;2024-03-17T13:20:46;23.75;;;22.15;;
21505;SDS011;10914;48.886;9.394;2024-03-17T13:23:11;23.27;;;21.98;;
21505;SDS011;10914;48.886;9.394;2024-03-17T13:25:36;23.33;;;22.03;;
21505;SDS011;10914;48.886;9.394;2024-03-17T13:28:02;24.45;;;23.05;;
21505;SDS011;10914;48.886;9.394;2024-03-17T13:30:28;25.02;;;23.63;;
21505;SDS011;10914;48.886;9.394;2024-03-17T13:32:53;26.63;;;25.13;;
21505;SDS011;10914;48.886;9.394;2024-03-17T13:35:28;30.30;;;28.58;;
21505;SDS011;10914;48.886;9.394;2024-03-17T13:37:57;32.30;;;30.50;;
21505;SDS011;10914;48.886;9.394;2024-03-17T13:40:27;35.20;;;33.35;;
21505;SDS011;10914;48.886;9.394;2024-03-17T13:42:54;36.40;;;34.40;;
21505;SDS011;10914;48.886;9.394;2024-03-17T13:45:20;36.15;;;34.10;;
21505;SDS011;10914;48.886;9.394;2024-03-17T13:47:58;34.35;;;32.47;;
21505;SDS011;10914;48.886;9.394;2024-03-17T13:50:23;30.02;;;28.40;;
21505;SDS011;10914;48.886;9.394;2024-03-17T13:52:49;28.42;;;26.88;;
21505;SDS011;10914;48.886;9.394;2024-03-17T13:55:16;26.95;;;25.25;;
21505;SDS011;10914;48.886;9.394;2024-03-17T13:57:44;25.92;;;24.42;;
21505;SDS011;10914;48.886;9.394;2024-03-17T14:00:10;25.02;;;23.52;;
21505;SDS011;10914;48.886;9.394;2024-03-17T14:02:40;23.58;;;22.27;;
21505;SDS011;10914;48.886;9.394;2024-03-17T14:05:05;24.60;;;23.10;;
21505;SDS011;10914;48.886;9.394;2024-03-17T14:07:32;24.02;;;22.63;;
21505;SDS011;10914;48.886;9.394;2024-03-17T14:09:57;24.52;;;22.98;;
21505;SDS011;10914;48.886;9.394;2024-03-17T14:12:23;23.60;;;22.20;;
21505;SDS011;10914;48.886;9.394;2024-03-17T14:14:51;23.33;;;21.92;;
21505;SDS011;10914;48.886;9.394;2024-03-17T14:17:16;25.00;;;23.40;;
21505;SDS011;10914;48.886;9.394;2024-03-17T14:19:41;24.25;;;22.75;;
21505;SDS011;10914;48.886;9.394;2024-03-17T14:22:06;23.38;;;22.08;;
21505;SDS011;10914;48.886;9.394;2024-03-17T14:24:31;24.58;;;23.17;;
21505;SDS011;10914;48.886;9.394;2024-03-17T14:26:57;24.17;;;22.80;;
21505;SDS011;10914;48.886;9.394;2024-03-17T14:29:22;25.10;;;23.60;;
21505;SDS011;10914;48.886;9.394;2024-03-17T14:31:47;23.20;;;21.90;;
21505;SDS011;10914;48.886;9.394;2024-03-17T14:34:13;25.42;;;23.92;;